sensor_id;sensor_type;location;lat;lon;timestamp;P1;durP1;ratioP1;P2;durP2;ratioP2
73841;SDS011;62184;52.006;5.924;2022-09-17T00:01:09;15.20;;;2.45;;
73841;SDS011;62184;52.006;5.924;2022-09-17T00:03:41;15.45;;;2.30;;
73841;SDS011;62184;52.006;5.924;2022-09-17T00:06:11;15.57;;;2.97;;
73841;SDS011;62184;52.006;5.924;2022-09-17T00:08:38;13.77;;;2.80;;
73841;SDS011;62184;52.006;5.924;2022-09-17T00:11:06;12.68;;;2.70;;
73841;SDS011;62184;52.006;5.924;2022-09-17T00:13:35;14.10;;;2.85;;
73841;SDS011;62184;52.006;5.924;2022-09-17T00:16:02;13.18;;;3.20;;
73841;SDS011;62184;52.006;5.924;2022-09-17T00:18:29;14.68;;;2.58;;
73841;SDS011;62184;52.006;5.924;2022-09-17T00:20:56;13.25;;;3.13;;
73841;SDS011;62184;52.006;5.924;2022-09-17T00:23:25;18.30;;;2.88;;
73841;SDS011;62184;52.006;5.924;2022-09-17T00:25:51;15.17;;;2.50;;
73841;SDS011;62184;52.006;5.924;2022-09-17T00:28:18;13.53;;;3.10;;
73841;SDS011;62184;52.006;5.924;2022-09-17T00:30:44;13.07;;;2.50;;
73841;SDS011;62184;52.006;5.924;2022-09-17T00:33:12;12.73;;;2.83;;
73841;SDS011;62184;52.006;5.924;2022-09-17T00:35:41;16.40;;;2.45;;
73841;SDS011;62184;52.006;5.924;2022-09-17T00:38:09;15.85;;;2.85;;
73841;SDS011;62184;52.006;5.924;2022-09-17T00:40:38;15.52;;;2.30;;
73841;SDS011;62184;52.006;5.924;2022-09-17T00:43:08;14.20;;;2.83;;
73841;SDS011;62184;52.006;5.924;2022-09-17T00:45:36;14.75;;;3.08;;
73841;SDS011;62184;52.006;5.924;2022-09-17T00:48:04;15.23;;;2.33;;
73841;SDS011;62184;52.006;5.924;2022-09-17T00:50:33;12.98;;;2.67;;
73841;SDS011;62184;52.006;5.924;2022-09-17T00:53:05;12.70;;;2.37;;
73841;SDS011;62184;52.006;5.924;2022-09-17T00:55:41;13.95;;;2.60;;
73841;SDS011;62184;52.006;5.924;2022-09-17T00:58:14;11.40;;;2.45;;
73841;SDS011;62184;52.006;5.924;2022-09-17T01:00:45;14.10;;;3.13;;
73841;SDS011;62184;52.006;5.924;2022-09-17T01:03:12;11.45;;;3.00;;
73841;SDS011;62184;52.006;5.924;2022-09-17T01:05:41;13.18;;;3.15;;
73841;SDS011;62184;52.006;5.924;2022-09-17T01:08:16;15.32;;;2.92;;
73841;SDS011;62184;52.006;5.924;2022-09-17T01:11:09;12.73;;;2.80;;
73841;SDS011;62184;52.006;5.924;2022-09-17T01:13:55;11.35;;;2.60;;
73841;SDS011;62184;52.006;5.924;2022-09-17T01:16:46;12.02;;;2.78;;
73841;SDS011;62184;52.006;5.924;2022-09-17T01:19:40;15.07;;;2.95;;
73841;SDS011;62184;52.006;5.924;2022-09-17T01:22:40;13.40;;;2.65;;
73841;SDS011;62184;52.006;5.924;2022-09-17T01:25:24;12.20;;;2.58;;
73841;SDS011;62184;52.006;5.924;2022-09-17T01:31:24;15.25;;;2.20;;
73841;SDS011;62184;52.006;5.924;2022-09-17T01:34:04;10.40;;;2.15;;
73841;SDS011;62184;52.006;5.924;2022-09-17T01:36:58;14.87;;;2.47;;
73841;SDS011;62184;52.006;5.924;2022-09-17T01:39:34;11.38;;;2.28;;
73841;SDS011;62184;52.006;5.924;2022-09-17T01:42:15;14.13;;;2.15;;
73841;SDS011;62184;52.006;5.924;2022-09-17T01:44:52;13.48;;;2.38;;
73841;SDS011;62184;52.006;5.924;2022-09-17T01:47:31;13.87;;;2.47;;
73841;SDS011;62184;52.006;5.924;2022-09-17T01:50:06;15.13;;;2.10;;
73841;SDS011;62184;52.006;5.924;2022-09-17T01:52:38;12.02;;;2.00;;
73841;SDS011;62184;52.006;5.924;2022-09-17T01:55:12;10.85;;;2.20;;
73841;SDS011;62184;52.006;5.924;2022-09-17T01:57:43;16.80;;;2.87;;
73841;SDS011;62184;52.006;5.924;2022-09-17T02:00:17;13.23;;;2.30;;
73841;SDS011;62184;52.006;5.924;2022-09-17T02:02:47;10.82;;;1.90;;
73841;SDS011;62184;52.006;5.924;2022-09-17T02:05:23;11.20;;;2.00;;
73841;SDS011;62184;52.006;5.924;2022-09-17T02:07:56;11.95;;;1.90;;
73841;SDS011;62184;52.006;5.924;2022-09-17T02:10:32;11.03;;;2.10;;
73841;SDS011;62184;52.006;5.924;2022-09-17T02:13:05;12.57;;;2.07;;
73841;SDS011;62184;52.006;5.924;2022-09-17T02:15:39;13.60;;;2.30;;
73841;SDS011;62184;52.006;5.924;2022-09-17T02:18:17;13.93;;;2.53;;
73841;SDS011;62184;52.006;5.924;2022-09-17T02:20:53;13.15;;;2.10;;
73841;SDS011;62184;52.006;5.924;2022-09-17T02:23:33;13.90;;;2.63;;
73841;SDS011;62184;52.006;5.924;2022-09-17T02:26:10;14.48;;;2.13;;
73841;SDS011;62184;52.006;5.924;2022-09-17T02:28:44;14.90;;;2.47;;
73841;SDS011;62184;52.006;5.924;2022-09-17T02:31:16;15.05;;;2.45;;
73841;SDS011;62184;52.006;5.924;2022-09-17T02:33:47;14.30;;;2.40;;
73841;SDS011;62184;52.006;5.924;2022-09-17T02:36:18;13.40;;;2.33;;
73841;SDS011;62184;52.006;5.924;2022-09-17T02:38:45;14.80;;;2.72;;
73841;SDS011;62184;52.006;5.924;2022-09-17T02:41:13;14.07;;;2.83;;
73841;SDS011;62184;52.006;5.924;2022-09-17T02:43:49;16.23;;;2.58;;
73841;SDS011;62184;52.006;5.924;2022-09-17T02:46:52;16.80;;;2.50;;
73841;SDS011;62184;52.006;5.924;2022-09-17T02:49:51;18.38;;;2.55;;
73841;SDS011;62184;52.006;5.924;2022-09-17T02:52:39;12.80;;;2.67;;
73841;SDS011;62184;52.006;5.924;2022-09-17T02:55:30;14.57;;;2.57;;
73841;SDS011;62184;52.006;5.924;2022-09-17T02:58:11;15.40;;;2.80;;
73841;SDS011;62184;52.006;5.924;2022-09-17T03:00:51;16.30;;;3.03;;
73841;SDS011;62184;52.006;5.924;2022-09-17T03:03:22;15.45;;;2.38;;
73841;SDS011;62184;52.006;5.924;2022-09-17T03:06:00;13.27;;;2.50;;
73841;SDS011;62184;52.006;5.924;2022-09-17T03:08:27;16.20;;;2.87;;
73841;SDS011;62184;52.006;5.924;2022-09-17T03:10:58;15.35;;;3.15;;
73841;SDS011;62184;52.006;5.924;2022-09-17T03:13:25;14.82;;;3.15;;
73841;SDS011;62184;52.006;5.924;2022-09-17T03:15:51;14.98;;;3.22;;
73841;SDS011;62184;52.006;5.924;2022-09-17T03:18:17;16.35;;;2.95;;
73841;SDS011;62184;52.006;5.924;2022-09-17T03:20:44;14.82;;;2.60;;
73841;SDS011;62184;52.006;5.924;2022-09-17T03:23:13;15.18;;;2.30;;
73841;SDS011;62184;52.006;5.924;2022-09-17T03:25:39;12.32;;;2.38;;
73841;SDS011;62184;52.006;5.924;2022-09-17T03:28:06;13.98;;;2.78;;
73841;SDS011;62184;52.006;5.924;2022-09-17T03:30:33;10.55;;;2.30;;
73841;SDS011;62184;52.006;5.924;2022-09-17T03:32:59;15.02;;;3.10;;
73841;SDS011;62184;52.006;5.924;2022-09-17T03:35:25;12.93;;;2.50;;
73841;SDS011;62184;52.006;5.924;2022-09-17T03:37:52;11.23;;;2.10;;
73841;SDS011;62184;52.006;5.924;2022-09-17T03:40:21;12.82;;;2.65;;
73841;SDS011;62184;52.006;5.924;2022-09-17T03:42:47;10.37;;;2.40;;
73841;SDS011;62184;52.006;5.924;2022-09-17T03:45:14;11.65;;;2.33;;
73841;SDS011;62184;52.006;5.924;2022-09-17T03:47:40;13.45;;;2.55;;
73841;SDS011;62184;52.006;5.924;2022-09-17T03:50:07;10.43;;;2.20;;
73841;SDS011;62184;52.006;5.924;2022-09-17T03:52:34;11.18;;;2.20;;
73841;SDS011;62184;52.006;5.924;2022-09-17T03:55:00;10.90;;;2.38;;
73841;SDS011;62184;52.006;5.924;2022-09-17T03:57:29;11.13;;;2.28;;
73841;SDS011;62184;52.006;5.924;2022-09-17T03:59:56;10.13;;;2.20;;
73841;SDS011;62184;52.006;5.924;2022-09-17T04:02:22;9.27;;;1.95;;
73841;SDS011;62184;52.006;5.924;2022-09-17T04:04:48;10.02;;;2.08;;
73841;SDS011;62184;52.006;5.924;2022-09-17T04:07:15;8.93;;;2.28;;
73841;SDS011;62184;52.006;5.924;2022-09-17T04:09:41;11.77;;;2.25;;
73841;SDS011;62184;52.006;5.924;2022-09-17T04:12:07;10.55;;;2.42;;
73841;SDS011;62184;52.006;5.924;2022-09-17T04:14:36;11.38;;;2.60;;
73841;SDS011;62184;52.006;5.924;2022-09-17T04:17:03;11.33;;;2.07;;
73841;SDS011;62184;52.006;5.924;2022-09-17T04:19:29;11.83;;;2.37;;
73841;SDS011;62184;52.006;5.924;2022-09-17T04:21:55;10.97;;;2.00;;
73841;SDS011;62184;52.006;5.924;2022-09-17T04:24:22;13.50;;;2.37;;
73841;SDS011;62184;52.006;5.924;2022-09-17T04:26:48;10.10;;;2.20;;
73841;SDS011;62184;52.006;5.924;2022-09-17T04:29:14;11.07;;;2.00;;
73841;SDS011;62184;52.006;5.924;2022-09-17T04:31:44;12.33;;;2.10;;
73841;SDS011;62184;52.006;5.924;2022-09-17T04:34:11;17.05;;;2.85;;
73841;SDS011;62184;52.006;5.924;2022-09-17T04:36:37;11.02;;;2.40;;
73841;SDS011;62184;52.006;5.924;2022-09-17T04:39:03;12.38;;;2.40;;
73841;SDS011;62184;52.006;5.924;2022-09-17T04:41:30;11.25;;;2.47;;
73841;SDS011;62184;52.006;5.924;2022-09-17T04:43:56;14.07;;;2.70;;
73841;SDS011;62184;52.006;5.924;2022-09-17T04:46:22;11.82;;;2.80;;
73841;SDS011;62184;52.006;5.924;2022-09-17T04:48:51;12.38;;;2.60;;
73841;SDS011;62184;52.006;5.924;2022-09-17T04:51:18;14.47;;;2.70;;
73841;SDS011;62184;52.006;5.924;2022-09-17T04:53:44;11.80;;;2.20;;
73841;SDS011;62184;52.006;5.924;2022-09-17T04:56:11;12.82;;;2.75;;
73841;SDS011;62184;52.006;5.924;2022-09-17T04:58:37;12.38;;;2.38;;
73841;SDS011;62184;52.006;5.924;2022-09-17T05:01:03;11.13;;;2.33;;
73841;SDS011;62184;52.006;5.924;2022-09-17T05:03:30;13.50;;;2.05;;
73841;SDS011;62184;52.006;5.924;2022-09-17T05:05:59;12.65;;;2.38;;
73841;SDS011;62184;52.006;5.924;2022-09-17T05:08:25;14.40;;;2.45;;
73841;SDS011;62184;52.006;5.924;2022-09-17T05:10:52;13.88;;;2.42;;
73841;SDS011;62184;52.006;5.924;2022-09-17T05:13:18;11.55;;;2.63;;
73841;SDS011;62184;52.006;5.924;2022-09-17T05:15:45;10.75;;;2.22;;
73841;SDS011;62184;52.006;5.924;2022-09-17T05:18:11;11.70;;;1.92;;
73841;SDS011;62184;52.006;5.924;2022-09-17T05:20:37;13.57;;;2.20;;
73841;SDS011;62184;52.006;5.924;2022-09-17T05:23:06;12.63;;;2.60;;
73841;SDS011;62184;52.006;5.924;2022-09-17T05:25:33;13.23;;;2.28;;
73841;SDS011;62184;52.006;5.924;2022-09-17T05:27:59;12.10;;;1.93;;
73841;SDS011;62184;52.006;5.924;2022-09-17T05:30:26;13.38;;;2.15;;
73841;SDS011;62184;52.006;5.924;2022-09-17T05:32:59;11.63;;;2.20;;
73841;SDS011;62184;52.006;5.924;2022-09-17T05:35:27;11.73;;;2.22;;
73841;SDS011;62184;52.006;5.924;2022-09-17T05:37:58;14.50;;;2.00;;
73841;SDS011;62184;52.006;5.924;2022-09-17T05:40:28;12.73;;;2.00;;
73841;SDS011;62184;52.006;5.924;2022-09-17T05:42:58;14.27;;;2.38;;
73841;SDS011;62184;52.006;5.924;2022-09-17T05:45:26;13.20;;;2.70;;
73841;SDS011;62184;52.006;5.924;2022-09-17T05:47:54;12.57;;;2.35;;
73841;SDS011;62184;52.006;5.924;2022-09-17T05:50:21;11.13;;;1.88;;
73841;SDS011;62184;52.006;5.924;2022-09-17T05:52:47;12.52;;;2.30;;
73841;SDS011;62184;52.006;5.924;2022-09-17T05:55:14;12.25;;;2.30;;
73841;SDS011;62184;52.006;5.924;2022-09-17T05:57:43;10.13;;;2.10;;
73841;SDS011;62184;52.006;5.924;2022-09-17T06:00:10;12.77;;;1.80;;
73841;SDS011;62184;52.006;5.924;2022-09-17T06:02:38;9.10;;;2.28;;
73841;SDS011;62184;52.006;5.924;2022-09-17T06:05:05;12.63;;;2.50;;
73841;SDS011;62184;52.006;5.924;2022-09-17T06:07:33;11.63;;;2.08;;
73841;SDS011;62184;52.006;5.924;2022-09-17T06:10:00;11.85;;;2.58;;
73841;SDS011;62184;52.006;5.924;2022-09-17T06:12:27;13.43;;;2.05;;
73841;SDS011;62184;52.006;5.924;2022-09-17T06:14:56;12.95;;;2.03;;
73841;SDS011;62184;52.006;5.924;2022-09-17T06:17:22;11.63;;;2.20;;
73841;SDS011;62184;52.006;5.924;2022-09-17T06:19:48;12.77;;;2.20;;
73841;SDS011;62184;52.006;5.924;2022-09-17T06:22:16;11.45;;;2.00;;
73841;SDS011;62184;52.006;5.924;2022-09-17T06:24:43;13.05;;;2.15;;
73841;SDS011;62184;52.006;5.924;2022-09-17T06:27:09;12.32;;;2.30;;
73841;SDS011;62184;52.006;5.924;2022-09-17T06:29:36;12.53;;;2.37;;
73841;SDS011;62184;52.006;5.924;2022-09-17T06:32:06;12.03;;;2.37;;
73841;SDS011;62184;52.006;5.924;2022-09-17T06:34:33;13.15;;;2.20;;
73841;SDS011;62184;52.006;5.924;2022-09-17T06:36:59;9.93;;;2.40;;
73841;SDS011;62184;52.006;5.924;2022-09-17T06:39:26;10.88;;;2.05;;
73841;SDS011;62184;52.006;5.924;2022-09-17T06:41:52;10.45;;;1.90;;
73841;SDS011;62184;52.006;5.924;2022-09-17T06:44:18;10.50;;;1.70;;
73841;SDS011;62184;52.006;5.924;2022-09-17T06:46:47;7.55;;;1.98;;
73841;SDS011;62184;52.006;5.924;2022-09-17T06:49:16;8.65;;;1.80;;
73841;SDS011;62184;52.006;5.924;2022-09-17T06:51:43;9.75;;;1.88;;
73841;SDS011;62184;52.006;5.924;2022-09-17T06:54:09;9.43;;;1.90;;
73841;SDS011;62184;52.006;5.924;2022-09-17T06:56:36;8.20;;;1.70;;
73841;SDS011;62184;52.006;5.924;2022-09-17T06:59:03;8.13;;;1.70;;
73841;SDS011;62184;52.006;5.924;2022-09-17T07:01:29;8.15;;;1.40;;
73841;SDS011;62184;52.006;5.924;2022-09-17T07:03:55;11.55;;;1.85;;
73841;SDS011;62184;52.006;5.924;2022-09-17T07:06:24;10.35;;;2.10;;
73841;SDS011;62184;52.006;5.924;2022-09-17T07:08:51;8.03;;;1.80;;
73841;SDS011;62184;52.006;5.924;2022-09-17T07:11:17;6.73;;;1.30;;
73841;SDS011;62184;52.006;5.924;2022-09-17T07:13:43;8.03;;;1.63;;
73841;SDS011;62184;52.006;5.924;2022-09-17T07:16:10;8.60;;;1.20;;
73841;SDS011;62184;52.006;5.924;2022-09-17T07:18:38;9.02;;;1.45;;
73841;SDS011;62184;52.006;5.924;2022-09-17T07:21:04;8.00;;;1.50;;
73841;SDS011;62184;52.006;5.924;2022-09-17T07:23:35;10.00;;;1.60;;
73841;SDS011;62184;52.006;5.924;2022-09-17T07:26:03;8.80;;;1.60;;
73841;SDS011;62184;52.006;5.924;2022-09-17T07:28:31;8.20;;;1.90;;
73841;SDS011;62184;52.006;5.924;2022-09-17T07:31:01;8.33;;;1.50;;
73841;SDS011;62184;52.006;5.924;2022-09-17T07:33:29;10.52;;;1.90;;
73841;SDS011;62184;52.006;5.924;2022-09-17T07:35:56;7.72;;;1.58;;
73841;SDS011;62184;52.006;5.924;2022-09-17T07:38:25;7.15;;;1.42;;
73841;SDS011;62184;52.006;5.924;2022-09-17T07:40:59;8.47;;;1.43;;
73841;SDS011;62184;52.006;5.924;2022-09-17T07:43:28;7.22;;;1.73;;
73841;SDS011;62184;52.006;5.924;2022-09-17T07:45:57;8.57;;;1.48;;
73841;SDS011;62184;52.006;5.924;2022-09-17T07:48:26;7.28;;;1.35;;
73841;SDS011;62184;52.006;5.924;2022-09-17T07:50:53;8.57;;;1.20;;
73841;SDS011;62184;52.006;5.924;2022-09-17T07:53:21;8.90;;;1.55;;
73841;SDS011;62184;52.006;5.924;2022-09-17T07:55:51;8.10;;;1.65;;
73841;SDS011;62184;52.006;5.924;2022-09-17T07:58:21;8.02;;;1.52;;
73841;SDS011;62184;52.006;5.924;2022-09-17T08:00:52;7.10;;;1.15;;
73841;SDS011;62184;52.006;5.924;2022-09-17T08:03:24;8.45;;;1.45;;
73841;SDS011;62184;52.006;5.924;2022-09-17T08:05:50;9.85;;;1.48;;
73841;SDS011;62184;52.006;5.924;2022-09-17T08:08:16;8.90;;;2.10;;
73841;SDS011;62184;52.006;5.924;2022-09-17T08:10:43;8.40;;;1.35;;
73841;SDS011;62184;52.006;5.924;2022-09-17T08:13:09;7.23;;;1.53;;
73841;SDS011;62184;52.006;5.924;2022-09-17T08:15:38;9.70;;;2.05;;
73841;SDS011;62184;52.006;5.924;2022-09-17T08:18:04;9.25;;;1.55;;
73841;SDS011;62184;52.006;5.924;2022-09-17T08:20:31;7.97;;;1.40;;
73841;SDS011;62184;52.006;5.924;2022-09-17T08:22:58;8.60;;;1.55;;
73841;SDS011;62184;52.006;5.924;2022-09-17T08:25:25;7.68;;;1.30;;
73841;SDS011;62184;52.006;5.924;2022-09-17T08:27:52;9.43;;;1.30;;
73841;SDS011;62184;52.006;5.924;2022-09-17T08:30:19;9.20;;;1.40;;
73841;SDS011;62184;52.006;5.924;2022-09-17T08:32:48;8.20;;;1.30;;
73841;SDS011;62184;52.006;5.924;2022-09-17T08:35:14;6.35;;;1.20;;
73841;SDS011;62184;52.006;5.924;2022-09-17T08:37:41;8.18;;;1.23;;
73841;SDS011;62184;52.006;5.924;2022-09-17T08:40:08;8.13;;;1.10;;
73841;SDS011;62184;52.006;5.924;2022-09-17T08:42:45;7.85;;;1.30;;
73841;SDS011;62184;52.006;5.924;2022-09-17T08:45:19;6.83;;;1.23;;
73841;SDS011;62184;52.006;5.924;2022-09-17T08:47:49;8.07;;;1.25;;
73841;SDS011;62184;52.006;5.924;2022-09-17T08:50:16;7.72;;;1.48;;
73841;SDS011;62184;52.006;5.924;2022-09-17T08:53:04;7.80;;;1.20;;
73841;SDS011;62184;52.006;5.924;2022-09-17T08:55:50;7.57;;;1.27;;
73841;SDS011;62184;52.006;5.924;2022-09-17T08:58:31;5.90;;;1.13;;
73841;SDS011;62184;52.006;5.924;2022-09-17T09:01:08;7.93;;;1.20;;
73841;SDS011;62184;52.006;5.924;2022-09-17T09:06:51;6.55;;;1.00;;
73841;SDS011;62184;52.006;5.924;2022-09-17T09:09:27;6.78;;;1.08;;
73841;SDS011;62184;52.006;5.924;2022-09-17T09:12:02;5.88;;;0.93;;
73841;SDS011;62184;52.006;5.924;2022-09-17T09:14:38;6.72;;;1.02;;
73841;SDS011;62184;52.006;5.924;2022-09-17T09:17:14;5.88;;;0.90;;
73841;SDS011;62184;52.006;5.924;2022-09-17T09:19:50;6.80;;;1.20;;
73841;SDS011;62184;52.006;5.924;2022-09-17T09:22:22;5.50;;;1.10;;
73841;SDS011;62184;52.006;5.924;2022-09-17T09:25:09;5.88;;;0.95;;
73841;SDS011;62184;52.006;5.924;2022-09-17T09:27:46;6.18;;;1.00;;
73841;SDS011;62184;52.006;5.924;2022-09-17T09:30:27;5.05;;;1.00;;
73841;SDS011;62184;52.006;5.924;2022-09-17T09:33:10;5.20;;;1.17;;
73841;SDS011;62184;52.006;5.924;2022-09-17T09:35:43;6.45;;;1.25;;
73841;SDS011;62184;52.006;5.924;2022-09-17T09:38:12;6.30;;;1.10;;
73841;SDS011;62184;52.006;5.924;2022-09-17T09:40:50;6.10;;;1.20;;
73841;SDS011;62184;52.006;5.924;2022-09-17T09:43:23;6.47;;;1.02;;
73841;SDS011;62184;52.006;5.924;2022-09-17T09:46:07;6.80;;;1.30;;
73841;SDS011;62184;52.006;5.924;2022-09-17T09:48:58;6.18;;;0.90;;
73841;SDS011;62184;52.006;5.924;2022-09-17T09:51:47;7.72;;;1.05;;
73841;SDS011;62184;52.006;5.924;2022-09-17T09:54:29;7.20;;;0.98;;
73841;SDS011;62184;52.006;5.924;2022-09-17T09:57:16;6.55;;;1.02;;
73841;SDS011;62184;52.006;5.924;2022-09-17T09:59:50;7.82;;;1.13;;
73841;SDS011;62184;52.006;5.924;2022-09-17T10:02:58;8.55;;;1.23;;
73841;SDS011;62184;52.006;5.924;2022-09-17T10:05:34;6.68;;;1.13;;
73841;SDS011;62184;52.006;5.924;2022-09-17T10:08:12;7.30;;;1.10;;
73841;SDS011;62184;52.006;5.924;2022-09-17T10:10:52;7.72;;;1.20;;
73841;SDS011;62184;52.006;5.924;2022-09-17T10:13:24;6.90;;;1.20;;
73841;SDS011;62184;52.006;5.924;2022-09-17T10:15:51;6.03;;;1.15;;
73841;SDS011;62184;52.006;5.924;2022-09-17T10:18:18;6.30;;;1.30;;
73841;SDS011;62184;52.006;5.924;2022-09-17T10:20:48;6.10;;;1.15;;
73841;SDS011;62184;52.006;5.924;2022-09-17T10:23:24;5.20;;;1.25;;
73841;SDS011;62184;52.006;5.924;2022-09-17T10:25:53;7.25;;;1.10;;
73841;SDS011;62184;52.006;5.924;2022-09-17T10:28:23;5.85;;;1.08;;
73841;SDS011;62184;52.006;5.924;2022-09-17T10:31:08;6.97;;;1.50;;
73841;SDS011;62184;52.006;5.924;2022-09-17T10:33:35;5.32;;;1.10;;
73841;SDS011;62184;52.006;5.924;2022-09-17T10:36:15;8.27;;;1.20;;
73841;SDS011;62184;52.006;5.924;2022-09-17T10:38:44;9.38;;;1.10;;
73841;SDS011;62184;52.006;5.924;2022-09-17T10:41:15;2.05;;;0.40;;
73841;SDS011;62184;52.006;5.924;2022-09-17T10:43:44;2.00;;;0.40;;
73841;SDS011;62184;52.006;5.924;2022-09-17T10:46:14;2.03;;;0.40;;
73841;SDS011;62184;52.006;5.924;2022-09-17T10:48:50;2.17;;;0.40;;
73841;SDS011;62184;52.006;5.924;2022-09-17T10:51:30;2.15;;;0.55;;
73841;SDS011;62184;52.006;5.924;2022-09-17T10:54:04;2.10;;;0.40;;
73841;SDS011;62184;52.006;5.924;2022-09-17T10:56:50;2.00;;;0.40;;
73841;SDS011;62184;52.006;5.924;2022-09-17T10:59:27;2.33;;;0.50;;
73841;SDS011;62184;52.006;5.924;2022-09-17T11:05:46;2.20;;;0.40;;
73841;SDS011;62184;52.006;5.924;2022-09-17T11:08:37;2.40;;;0.40;;
73841;SDS011;62184;52.006;5.924;2022-09-17T11:11:22;2.20;;;0.40;;
73841;SDS011;62184;52.006;5.924;2022-09-17T11:14:05;2.17;;;0.40;;
73841;SDS011;62184;52.006;5.924;2022-09-17T11:16:51;2.20;;;0.40;;
73841;SDS011;62184;52.006;5.924;2022-09-17T11:19:37;2.10;;;0.40;;
73841;SDS011;62184;52.006;5.924;2022-09-17T11:22:16;2.20;;;0.50;;
73841;SDS011;62184;52.006;5.924;2022-09-17T11:24:59;2.00;;;0.40;;
73841;SDS011;62184;52.006;5.924;2022-09-17T11:28:03;2.00;;;0.40;;
73841;SDS011;62184;52.006;5.924;2022-09-17T11:30:48;2.20;;;0.43;;
73841;SDS011;62184;52.006;5.924;2022-09-17T11:33:37;2.10;;;0.40;;
73841;SDS011;62184;52.006;5.924;2022-09-17T11:36:26;2.10;;;0.50;;
73841;SDS011;62184;52.006;5.924;2022-09-17T11:38:59;2.17;;;0.68;;
73841;SDS011;62184;52.006;5.924;2022-09-17T11:41:41;2.00;;;0.40;;
73841;SDS011;62184;52.006;5.924;2022-09-17T11:44:21;1.90;;;0.40;;
73841;SDS011;62184;52.006;5.924;2022-09-17T11:46:56;1.90;;;0.40;;
73841;SDS011;62184;52.006;5.924;2022-09-17T11:49:32;2.10;;;0.50;;
73841;SDS011;62184;52.006;5.924;2022-09-17T11:52:08;2.00;;;0.40;;
73841;SDS011;62184;52.006;5.924;2022-09-17T11:54:45;2.67;;;0.60;;
73841;SDS011;62184;52.006;5.924;2022-09-17T11:57:24;2.40;;;0.80;;
73841;SDS011;62184;52.006;5.924;2022-09-17T11:59:58;2.30;;;0.60;;
73841;SDS011;62184;52.006;5.924;2022-09-17T12:02:37;2.10;;;0.40;;
73841;SDS011;62184;52.006;5.924;2022-09-17T12:05:17;2.07;;;0.40;;
73841;SDS011;62184;52.006;5.924;2022-09-17T12:07:52;2.10;;;0.50;;
73841;SDS011;62184;52.006;5.924;2022-09-17T12:10:32;2.03;;;0.40;;
73841;SDS011;62184;52.006;5.924;2022-09-17T12:13:13;2.50;;;0.90;;
73841;SDS011;62184;52.006;5.924;2022-09-17T12:16:02;2.10;;;0.60;;
73841;SDS011;62184;52.006;5.924;2022-09-17T12:18:50;2.30;;;0.80;;
73841;SDS011;62184;52.006;5.924;2022-09-17T12:21:28;2.22;;;0.70;;
73841;SDS011;62184;52.006;5.924;2022-09-17T12:24:03;2.33;;;0.60;;
73841;SDS011;62184;52.006;5.924;2022-09-17T12:26:45;2.20;;;0.60;;
73841;SDS011;62184;52.006;5.924;2022-09-17T12:32:46;2.17;;;0.60;;
73841;SDS011;62184;52.006;5.924;2022-09-17T12:35:30;2.13;;;0.57;;
73841;SDS011;62184;52.006;5.924;2022-09-17T12:38:20;2.25;;;0.60;;
73841;SDS011;62184;52.006;5.924;2022-09-17T12:41:09;3.00;;;0.57;;
73841;SDS011;62184;52.006;5.924;2022-09-17T12:43:49;2.30;;;0.50;;
73841;SDS011;62184;52.006;5.924;2022-09-17T12:46:45;2.50;;;0.60;;
73841;SDS011;62184;52.006;5.924;2022-09-17T12:49:36;2.22;;;0.70;;
73841;SDS011;62184;52.006;5.924;2022-09-17T12:52:42;2.45;;;1.00;;
73841;SDS011;62184;52.006;5.924;2022-09-17T12:55:34;2.10;;;0.50;;
73841;SDS011;62184;52.006;5.924;2022-09-17T12:58:18;2.15;;;0.55;;
73841;SDS011;62184;52.006;5.924;2022-09-17T13:01:05;2.47;;;0.88;;
73841;SDS011;62184;52.006;5.924;2022-09-17T13:03:43;3.20;;;0.90;;
73841;SDS011;62184;52.006;5.924;2022-09-17T13:06:37;2.40;;;0.80;;
73841;SDS011;62184;52.006;5.924;2022-09-17T13:09:36;2.60;;;0.98;;
73841;SDS011;62184;52.006;5.924;2022-09-17T13:12:35;2.60;;;0.98;;
73841;SDS011;62184;52.006;5.924;2022-09-17T13:15:19;2.10;;;0.57;;
73841;SDS011;62184;52.006;5.924;2022-09-17T13:18:04;2.40;;;1.00;;
73841;SDS011;62184;52.006;5.924;2022-09-17T13:20:45;2.45;;;0.90;;
73841;SDS011;62184;52.006;5.924;2022-09-17T13:23:32;2.07;;;0.60;;
73841;SDS011;62184;52.006;5.924;2022-09-17T13:26:05;2.10;;;0.50;;
73841;SDS011;62184;52.006;5.924;2022-09-17T13:28:37;2.20;;;0.50;;
73841;SDS011;62184;52.006;5.924;2022-09-17T13:31:07;2.30;;;0.45;;
73841;SDS011;62184;52.006;5.924;2022-09-17T13:36:35;2.30;;;0.73;;
73841;SDS011;62184;52.006;5.924;2022-09-17T13:39:30;3.10;;;0.57;;
73841;SDS011;62184;52.006;5.924;2022-09-17T13:42:09;2.25;;;0.80;;
73841;SDS011;62184;52.006;5.924;2022-09-17T13:44:44;2.08;;;0.57;;
73841;SDS011;62184;52.006;5.924;2022-09-17T13:47:17;2.17;;;0.70;;
73841;SDS011;62184;52.006;5.924;2022-09-17T13:49:52;2.10;;;0.68;;
73841;SDS011;62184;52.006;5.924;2022-09-17T13:52:28;2.00;;;0.40;;
73841;SDS011;62184;52.006;5.924;2022-09-17T13:55:01;2.10;;;0.50;;
73841;SDS011;62184;52.006;5.924;2022-09-17T13:57:30;2.13;;;0.52;;
73841;SDS011;62184;52.006;5.924;2022-09-17T14:00:27;2.30;;;0.70;;
73841;SDS011;62184;52.006;5.924;2022-09-17T14:18:34;2.17;;;0.52;;
73841;SDS011;62184;52.006;5.924;2022-09-17T14:21:20;2.00;;;0.50;;
73841;SDS011;62184;52.006;5.924;2022-09-17T14:23:54;2.10;;;0.68;;
73841;SDS011;62184;52.006;5.924;2022-09-17T14:26:28;2.00;;;0.50;;
73841;SDS011;62184;52.006;5.924;2022-09-17T14:29:16;2.10;;;0.40;;
73841;SDS011;62184;52.006;5.924;2022-09-17T14:32:01;2.30;;;0.70;;
73841;SDS011;62184;52.006;5.924;2022-09-17T14:34:32;2.20;;;0.75;;
73841;SDS011;62184;52.006;5.924;2022-09-17T14:36:58;2.15;;;0.60;;
73841;SDS011;62184;52.006;5.924;2022-09-17T14:39:27;2.13;;;0.65;;
73841;SDS011;62184;52.006;5.924;2022-09-17T14:42:03;2.35;;;0.55;;
73841;SDS011;62184;52.006;5.924;2022-09-17T14:44:38;1.92;;;0.35;;
73841;SDS011;62184;52.006;5.924;2022-09-17T14:47:21;2.20;;;0.63;;
73841;SDS011;62184;52.006;5.924;2022-09-17T14:49:48;2.30;;;0.70;;
73841;SDS011;62184;52.006;5.924;2022-09-17T14:52:18;2.10;;;0.60;;
73841;SDS011;62184;52.006;5.924;2022-09-17T14:57:52;2.00;;;0.40;;
73841;SDS011;62184;52.006;5.924;2022-09-17T15:00:22;2.20;;;0.50;;
73841;SDS011;62184;52.006;5.924;2022-09-17T15:02:56;2.10;;;0.60;;
73841;SDS011;62184;52.006;5.924;2022-09-17T15:05:24;2.30;;;0.60;;
73841;SDS011;62184;52.006;5.924;2022-09-17T15:10:44;2.28;;;0.68;;
73841;SDS011;62184;52.006;5.924;2022-09-17T15:13:14;2.30;;;0.60;;
73841;SDS011;62184;52.006;5.924;2022-09-17T15:15:51;2.30;;;0.80;;
73841;SDS011;62184;52.006;5.924;2022-09-17T15:18:27;2.10;;;0.50;;
73841;SDS011;62184;52.006;5.924;2022-09-17T15:21:02;2.10;;;0.40;;
73841;SDS011;62184;52.006;5.924;2022-09-17T15:23:38;2.30;;;0.70;;
73841;SDS011;62184;52.006;5.924;2022-09-17T15:26:07;2.25;;;0.75;;
73841;SDS011;62184;52.006;5.924;2022-09-17T15:28:38;2.20;;;0.63;;
73841;SDS011;62184;52.006;5.924;2022-09-17T15:31:12;2.38;;;0.65;;
73841;SDS011;62184;52.006;5.924;2022-09-17T15:33:45;2.20;;;0.68;;
73841;SDS011;62184;52.006;5.924;2022-09-17T15:36:17;2.20;;;0.60;;
73841;SDS011;62184;52.006;5.924;2022-09-17T15:38:46;2.30;;;0.50;;
73841;SDS011;62184;52.006;5.924;2022-09-17T15:44:06;2.20;;;0.60;;
73841;SDS011;62184;52.006;5.924;2022-09-17T15:46:40;2.20;;;0.60;;
73841;SDS011;62184;52.006;5.924;2022-09-17T15:54:59;3.33;;;0.60;;
73841;SDS011;62184;52.006;5.924;2022-09-17T15:57:26;2.30;;;0.60;;
73841;SDS011;62184;52.006;5.924;2022-09-17T16:00:04;2.40;;;0.65;;
73841;SDS011;62184;52.006;5.924;2022-09-17T16:02:35;2.20;;;0.50;;
73841;SDS011;62184;52.006;5.924;2022-09-17T16:08:20;2.10;;;0.40;;